createdAt,value
2022-08-07T00:01:43.345Z,19.20
2022-08-07T00:04:30.610Z,19.27
2022-08-07T00:07:40.530Z,19.39
2022-08-07T00:10:47.994Z,19.36
2022-08-07T00:14:00.145Z,19.33
2022-08-07T00:17:06.655Z,19.38
2022-08-07T00:20:10.179Z,19.37
2022-08-07T00:23:21.119Z,19.38
2022-08-07T00:26:49.466Z,19.38
2022-08-07T00:29:47.258Z,19.44
2022-08-07T00:32:50.549Z,19.43
2022-08-07T00:35:55.895Z,19.40
2022-08-07T00:38:59.163Z,19.47
2022-08-07T00:42:05.219Z,19.37
2022-08-07T00:45:16.142Z,19.41
2022-08-07T00:48:19.574Z,19.45
2022-08-07T00:51:57.403Z,19.36
2022-08-07T00:54:57.111Z,19.31
2022-08-07T00:58:00.138Z,19.24
2022-08-07T01:01:03.231Z,19.34
2022-08-07T01:04:07.579Z,19.29
2022-08-07T01:07:12.671Z,19.25
2022-08-07T01:10:18.387Z,19.20
2022-08-07T01:13:22.074Z,19.17
2022-08-07T01:16:30.230Z,19.23
2022-08-07T01:19:34.655Z,19.20
2022-08-07T01:22:54.159Z,19.20
2022-08-07T01:26:11.998Z,19.23
2022-08-07T01:29:17.316Z,19.26
2022-08-07T01:32:22.466Z,19.23
2022-08-07T01:35:52.945Z,19.15
2022-08-07T01:38:53.119Z,19.09
2022-08-07T01:42:37.174Z,18.98
2022-08-07T01:45:23.064Z,19.09
2022-08-07T01:48:46.688Z,18.97
2022-08-07T01:52:03.677Z,18.99
2022-08-07T01:55:22.280Z,18.89
2022-08-07T01:58:33.484Z,18.92
2022-08-07T02:02:04.298Z,18.89
2022-08-07T02:05:47.555Z,18.90
2022-08-07T02:08:54.232Z,18.98
2022-08-07T02:12:17.740Z,19.05
2022-08-07T02:15:23.652Z,18.97
2022-08-07T02:18:33.011Z,18.99
2022-08-07T02:21:55.232Z,19.15
2022-08-07T02:25:00.847Z,19.15
2022-08-07T02:28:06.918Z,19.28
2022-08-07T02:31:28.061Z,19.35
2022-08-07T02:34:34.129Z,19.40
2022-08-07T02:37:44.166Z,19.40
2022-08-07T02:40:50.487Z,19.46
2022-08-07T02:43:59.435Z,19.58
2022-08-07T02:47:04.421Z,19.43
2022-08-07T02:50:08.088Z,19.36
2022-08-07T02:53:18.083Z,19.34
2022-08-07T02:56:26.044Z,19.29
2022-08-07T02:59:32.410Z,19.30
2022-08-07T03:02:37.623Z,19.34
2022-08-07T03:05:57.231Z,19.24
2022-08-07T03:09:06.037Z,19.19
2022-08-07T03:12:16.206Z,19.18
2022-08-07T03:15:30.314Z,19.17
2022-08-07T03:18:50.086Z,19.11
2022-08-07T03:21:53.194Z,19.09
2022-08-07T03:24:57.356Z,19.06
2022-08-07T03:28:09.382Z,18.99
2022-08-07T03:31:42.845Z,19.01
2022-08-07T03:35:01.158Z,19.15
2022-08-07T03:38:17.215Z,19.11
2022-08-07T03:41:42.079Z,19.11
2022-08-07T03:44:53.419Z,19.10
2022-08-07T03:48:00.938Z,19.06
2022-08-07T03:51:05.408Z,19.13
2022-08-07T03:54:35.140Z,19.16
2022-08-07T03:58:08.859Z,19.22
2022-08-07T04:01:03.772Z,19.27
2022-08-07T04:04:17.226Z,19.38
2022-08-07T04:07:22.842Z,19.30
2022-08-07T04:10:26.561Z,19.38
2022-08-07T04:14:10.745Z,19.28
2022-08-07T04:16:59.011Z,19.33
2022-08-07T04:20:11.293Z,19.24
2022-08-07T04:23:19.295Z,19.20
2022-08-07T04:26:23.108Z,19.07
2022-08-07T04:29:48.822Z,19.09
2022-08-07T04:32:58.154Z,18.86
2022-08-07T04:36:06.610Z,18.72
2022-08-07T04:39:10.544Z,18.76
2022-08-07T04:42:13.761Z,18.74
2022-08-07T04:45:22.408Z,18.42
2022-08-07T04:49:24.212Z,18.49
2022-08-07T04:52:34.166Z,18.31
2022-08-07T04:58:14.164Z,18.12
2022-08-07T05:00:11.956Z,18.04
2022-08-07T05:03:59.619Z,17.84
2022-08-07T05:07:20.609Z,17.98
2022-08-07T05:10:35.241Z,17.76
2022-08-07T05:14:53.336Z,17.71
2022-08-07T05:17:13.928Z,17.64
2022-08-07T05:20:50.266Z,17.63
2022-08-07T05:23:59.814Z,17.60
2022-08-07T05:27:08.453Z,17.66
2022-08-07T05:30:33.227Z,17.68
2022-08-07T05:33:38.765Z,17.91
2022-08-07T05:36:44.957Z,17.98
2022-08-07T05:40:14.320Z,18.05
2022-08-07T05:43:18.623Z,17.99
2022-08-07T05:46:23.142Z,18.00
2022-08-07T05:49:41.014Z,17.97
2022-08-07T05:52:44.171Z,18.10
2022-08-07T05:56:03.551Z,18.05
2022-08-07T05:59:17.429Z,18.21
2022-08-07T06:02:28.440Z,18.17
2022-08-07T06:05:34.404Z,18.12
2022-08-07T06:08:44.190Z,18.09
2022-08-07T06:11:50.180Z,18.32
2022-08-07T06:14:55.168Z,18.23
2022-08-07T06:18:07.203Z,18.38
2022-08-07T06:22:14.300Z,18.42
2022-08-07T06:24:52.733Z,18.52
2022-08-07T06:28:07.412Z,18.59
2022-08-07T06:31:11.656Z,18.69
2022-08-07T06:34:14.591Z,18.57
2022-08-07T06:37:20.679Z,18.56
2022-08-07T06:40:25.421Z,18.49
2022-08-07T06:43:39.255Z,18.44
2022-08-07T06:46:43.084Z,18.48
2022-08-07T06:49:58.545Z,18.49
2022-08-07T06:53:04.224Z,18.46
2022-08-07T06:56:15.526Z,18.55
2022-08-07T07:00:12.088Z,18.59
2022-08-07T07:02:54.613Z,18.29
2022-08-07T07:06:01.839Z,18.49
2022-08-07T07:09:16.649Z,18.51
2022-08-07T07:12:30.700Z,18.41
2022-08-07T07:15:39.670Z,18.34
2022-08-07T07:18:50.209Z,18.34
2022-08-07T07:22:05.309Z,18.43
2022-08-07T07:26:35.524Z,18.54
2022-08-07T07:29:40.493Z,18.64
2022-08-07T07:32:28.711Z,18.77
2022-08-07T07:35:54.513Z,18.80
2022-08-07T07:39:00.461Z,18.87
2022-08-07T07:42:12.945Z,19.02
2022-08-07T07:45:19.172Z,19.14
2022-08-07T07:48:35.948Z,19.42
2022-08-07T07:51:57.516Z,19.48
2022-08-07T07:55:04.224Z,19.56
2022-08-07T07:58:07.519Z,19.70
2022-08-07T08:02:01.888Z,19.86
2022-08-07T08:04:43.540Z,19.95
2022-08-07T08:07:59.523Z,20.05
2022-08-07T08:11:16.279Z,20.08
2022-08-07T08:14:36.369Z,20.08
2022-08-07T08:17:57.687Z,20.31
2022-08-07T08:21:02.661Z,20.47
2022-08-07T08:24:44.844Z,20.65
2022-08-07T08:27:56.361Z,20.96
2022-08-07T08:31:06.677Z,21.14
2022-08-07T08:34:12.447Z,21.22
2022-08-07T08:38:01.161Z,21.38
2022-08-07T08:41:11.910Z,21.71
2022-08-07T08:44:44.600Z,21.95
2022-08-07T08:48:28.479Z,22.40
2022-08-07T08:52:12.798Z,22.90
2022-08-07T08:55:54.350Z,22.92
2022-08-07T08:58:57.131Z,22.88
2022-08-07T09:02:34.673Z,24.24
2022-08-07T09:05:59.433Z,24.67
2022-08-07T09:09:47.546Z,25.26
2022-08-07T09:13:15.002Z,26.54
2022-08-07T09:16:45.595Z,26.06
2022-08-07T09:19:59.621Z,25.85
2022-08-07T09:24:32.558Z,26.01
2022-08-07T09:27:24.856Z,26.07
2022-08-07T09:30:54.278Z,27.09
2022-08-07T09:33:58.277Z,27.43
2022-08-07T09:37:08.073Z,27.36
2022-08-07T09:40:26.530Z,27.02
2022-08-07T09:44:05.422Z,26.75
2022-08-07T09:47:57.765Z,26.73
2022-08-07T09:51:14.820Z,26.79
2022-08-07T09:54:45.474Z,26.73
2022-08-07T09:58:03.946Z,26.56
2022-08-07T10:01:52.088Z,27.13
2022-08-07T10:05:59.631Z,26.85
2022-08-07T10:09:23.833Z,26.68
2022-08-07T10:13:29.873Z,27.33
2022-08-07T10:17:16.830Z,28.97
2022-08-07T10:20:39.436Z,27.74
2022-08-07T10:24:05.881Z,27.20
2022-08-07T10:27:51.398Z,26.48
2022-08-07T10:30:57.748Z,27.76
2022-08-07T10:34:32.185Z,27.09
2022-08-07T10:38:09.609Z,28.88
2022-08-07T10:41:51.224Z,28.92
2022-08-07T10:45:16.923Z,29.41
2022-08-07T10:48:39.872Z,29.21
2022-08-07T10:52:01.605Z,29.20
2022-08-07T10:55:37.887Z,29.21
2022-08-07T10:59:21.641Z,28.51
2022-08-07T11:02:38.144Z,28.73
2022-08-07T11:06:21.826Z,28.62
2022-08-07T11:10:08.971Z,28.27
2022-08-07T11:14:42.618Z,28.46
2022-08-07T11:17:43.112Z,28.71
2022-08-07T11:21:14.761Z,28.55
2022-08-07T11:24:33.598Z,29.05
2022-08-07T11:28:02.513Z,28.68
2022-08-07T11:31:24.824Z,28.40
2022-08-07T11:34:42.534Z,29.01
2022-08-07T11:38:12.715Z,29.23
2022-08-07T11:41:29.673Z,29.27
2022-08-07T11:45:20.457Z,28.81
2022-08-07T11:49:51.043Z,29.70
2022-08-07T11:52:42.906Z,29.55
2022-08-07T11:56:27.006Z,29.05
2022-08-07T12:00:19.793Z,28.97
2022-08-07T12:03:41.538Z,29.53
2022-08-07T12:07:17.274Z,29.45
2022-08-07T12:10:35.390Z,29.37
2022-08-07T12:13:47.765Z,29.21
2022-08-07T12:17:04.289Z,29.06
2022-08-07T12:20:29.691Z,29.41
2022-08-07T12:24:07.317Z,29.34
2022-08-07T12:27:18.651Z,29.32
2022-08-07T12:30:34.838Z,29.15
2022-08-07T12:34:01.486Z,28.50
2022-08-07T12:37:08.819Z,28.50
2022-08-07T12:40:46.827Z,28.39
2022-08-07T12:44:03.554Z,28.23
2022-08-07T12:47:30.736Z,28.76
2022-08-07T12:50:55.648Z,28.38
2022-08-07T12:54:36.459Z,28.02
2022-08-07T12:57:38.927Z,28.04
2022-08-07T13:01:19.659Z,28.02
2022-08-07T13:05:01.391Z,28.10
2022-08-07T13:08:33.999Z,28.39
2022-08-07T13:12:03.322Z,28.91
2022-08-07T13:15:29.772Z,29.33
2022-08-07T13:19:02.750Z,29.36
2022-08-07T13:22:19.864Z,29.48
2022-08-07T13:25:39.466Z,29.49
2022-08-07T13:29:01.307Z,29.72
2022-08-07T13:32:31.832Z,29.99
2022-08-07T13:36:01.070Z,29.83
2022-08-07T13:40:34.232Z,29.72
2022-08-07T13:43:04.838Z,29.58
2022-08-07T13:46:24.802Z,29.64
2022-08-07T13:50:34.785Z,29.77
2022-08-07T13:53:02.934Z,29.51
2022-08-07T13:56:06.411Z,29.66
2022-08-07T13:59:21.535Z,30.06
2022-08-07T14:02:33.328Z,29.96
2022-08-07T14:05:38.334Z,29.39
2022-08-07T14:08:48.724Z,29.91
2022-08-07T14:12:07.376Z,30.10
2022-08-07T14:15:35.903Z,30.29
2022-08-07T14:18:44.926Z,29.68
2022-08-07T14:22:04.266Z,29.83
2022-08-07T14:25:18.242Z,29.85
2022-08-07T14:28:33.226Z,30.16
2022-08-07T14:31:56.642Z,29.83
2022-08-07T14:35:03.905Z,29.90
2022-08-07T14:38:09.260Z,29.91
2022-08-07T14:42:22.383Z,30.02
2022-08-07T14:45:21.724Z,29.86
2022-08-07T14:48:33.220Z,29.52
2022-08-07T14:52:05.143Z,29.66
2022-08-07T14:55:02.833Z,29.40
2022-08-07T14:58:07.281Z,29.08
2022-08-07T15:01:42.262Z,29.29
2022-08-07T15:04:53.288Z,29.49
2022-08-07T15:07:58.509Z,29.49
2022-08-07T15:11:10.151Z,29.34
2022-08-07T15:14:25.413Z,29.43
2022-08-07T15:17:54.668Z,29.53
2022-08-07T15:21:04.013Z,29.46
2022-08-07T15:25:13.905Z,29.32
2022-08-07T15:31:10.704Z,29.08
2022-08-07T15:34:17.152Z,29.18
2022-08-07T15:37:29.164Z,29.07
2022-08-07T15:44:20.894Z,28.91
2022-08-07T15:48:00.229Z,28.88
2022-08-07T15:54:25.715Z,28.54
2022-08-07T15:57:39.834Z,28.62
2022-08-07T16:00:51.867Z,28.44
2022-08-07T16:04:03.152Z,28.55
2022-08-07T16:08:29.113Z,28.42
2022-08-07T16:10:47.151Z,28.26
2022-08-07T16:14:05.395Z,28.11
2022-08-07T16:18:02.028Z,28.13
2022-08-07T16:21:53.735Z,27.72
2022-08-07T16:24:33.969Z,27.91
2022-08-07T16:29:18.917Z,27.72
2022-08-07T16:31:57.353Z,27.67
2022-08-07T16:35:51.841Z,27.58
2022-08-07T16:39:20.853Z,27.62
2022-08-07T16:43:07.561Z,27.57
2022-08-07T16:50:38.897Z,27.35
2022-08-07T16:54:06.403Z,27.36
2022-08-07T16:58:00.872Z,27.31
2022-08-07T17:01:23.970Z,27.20
2022-08-07T17:05:05.577Z,27.14
2022-08-07T17:08:09.047Z,27.05
2022-08-07T17:12:04.325Z,27.00
2022-08-07T17:15:03.139Z,26.90
2022-08-07T17:18:36.215Z,26.88
2022-08-07T17:21:51.378Z,26.78
2022-08-07T17:25:08.235Z,26.67
2022-08-07T17:28:25.275Z,26.59
2022-08-07T17:31:33.959Z,26.45
2022-08-07T17:35:40.630Z,26.43
2022-08-07T17:38:33.915Z,26.21
2022-08-07T17:42:36.314Z,26.16
2022-08-07T17:46:22.775Z,26.09
2022-08-07T17:50:01.030Z,25.91
2022-08-07T17:53:52.588Z,25.85
2022-08-07T17:56:36.136Z,25.88
2022-08-07T17:59:58.643Z,25.81
2022-08-07T18:03:09.559Z,25.64
2022-08-07T18:06:16.745Z,25.57
2022-08-07T18:10:06.596Z,25.56
2022-08-07T18:13:40.681Z,25.49
2022-08-07T18:16:58.264Z,25.38
2022-08-07T18:21:07.143Z,25.20
2022-08-07T18:24:07.648Z,25.13
2022-08-07T18:27:17.217Z,25.09
2022-08-07T18:30:31.254Z,25.01
2022-08-07T18:34:34.838Z,24.95
2022-08-07T18:38:57.675Z,24.83
2022-08-07T18:41:44.885Z,24.70
2022-08-07T18:45:43.219Z,24.58
2022-08-07T18:50:32.509Z,24.53
2022-08-07T18:52:54.304Z,24.46
2022-08-07T18:56:37.692Z,24.40
2022-08-07T19:00:04.371Z,24.41
2022-08-07T19:03:49.453Z,24.28
2022-08-07T19:07:01.886Z,24.17
2022-08-07T19:10:21.898Z,24.18
2022-08-07T19:13:50.111Z,24.12
2022-08-07T19:17:07.092Z,24.07
2022-08-07T19:20:29.097Z,24.08
2022-08-07T19:23:58.811Z,24.10
2022-08-07T19:28:57.981Z,24.09
2022-08-07T19:31:05.544Z,24.19
2022-08-07T19:34:02.998Z,24.23
2022-08-07T19:37:17.036Z,24.15
2022-08-07T19:40:30.933Z,24.20
2022-08-07T19:43:48.592Z,24.22
2022-08-07T19:47:11.582Z,24.18
2022-08-07T19:50:41.142Z,24.01
2022-08-07T19:54:34.344Z,24.00
2022-08-07T19:58:02.756Z,23.94
2022-08-07T20:00:55.425Z,23.86
2022-08-07T20:04:01.437Z,23.73
2022-08-07T20:07:09.078Z,23.67
2022-08-07T20:10:35.846Z,23.47
2022-08-07T20:13:53.885Z,23.44
2022-08-07T20:16:59.331Z,23.52
2022-08-07T20:20:07.308Z,23.64
2022-08-07T20:23:32.938Z,23.34
2022-08-07T20:26:44.966Z,23.34
2022-08-07T20:29:59.226Z,23.09
2022-08-07T20:33:36.271Z,22.60
2022-08-07T20:36:33.810Z,22.57
2022-08-07T20:40:03.600Z,22.48
2022-08-07T20:43:09.713Z,22.34
2022-08-07T20:46:31.126Z,22.29
2022-08-07T20:50:00.834Z,22.27
2022-08-07T20:53:05.791Z,22.17
2022-08-07T20:56:10.552Z,22.12
2022-08-07T21:00:04.218Z,21.98
2022-08-07T21:02:58.610Z,21.91
2022-08-07T21:06:21.765Z,21.85
2022-08-07T21:09:35.580Z,21.70
2022-08-07T21:12:58.122Z,21.59
2022-08-07T21:16:04.300Z,21.45
2022-08-07T21:19:13.956Z,21.31
2022-08-07T21:22:19.087Z,21.24
2022-08-07T21:25:43.979Z,21.14
2022-08-07T21:29:15.916Z,21.06
2022-08-07T21:32:43.125Z,21.44
2022-08-07T21:36:05.630Z,21.65
2022-08-07T21:39:48.176Z,21.69
2022-08-07T21:43:04.530Z,22.03
2022-08-07T21:46:24.508Z,22.08
2022-08-07T21:50:02.694Z,22.24
2022-08-07T21:53:17.145Z,22.20
2022-08-07T21:56:49.675Z,22.02
2022-08-07T22:00:05.188Z,21.74
2022-08-07T22:03:16.727Z,21.49
2022-08-07T22:06:45.278Z,21.40
2022-08-07T22:09:57.786Z,21.38
2022-08-07T22:13:09.227Z,21.03
2022-08-07T22:16:44.520Z,21.11
2022-08-07T22:20:02.794Z,21.03
2022-08-07T22:23:30.558Z,20.95
2022-08-07T22:26:46.866Z,20.95
2022-08-07T22:29:56.673Z,21.09
2022-08-07T22:33:01.690Z,20.73
2022-08-07T22:36:32.869Z,20.33
2022-08-07T22:39:52.448Z,20.31
2022-08-07T22:43:07.571Z,20.09
2022-08-07T22:47:01.929Z,19.97
2022-08-07T22:50:09.021Z,19.79
2022-08-07T22:54:07.736Z,19.76
2022-08-07T22:57:33.007Z,19.68
2022-08-07T23:00:48.747Z,19.48
2022-08-07T23:04:11.810Z,19.53
2022-08-07T23:07:53.867Z,19.34
2022-08-07T23:11:18.185Z,19.61
2022-08-07T23:15:08.027Z,19.49
2022-08-07T23:18:32.122Z,19.32
2022-08-07T23:21:56.415Z,19.27
2022-08-07T23:25:34.473Z,19.21
2022-08-07T23:29:42.793Z,19.37
2022-08-07T23:34:23.081Z,19.17
2022-08-07T23:36:35.847Z,19.13
2022-08-07T23:40:07.447Z,19.18
2022-08-07T23:43:38.014Z,19.07
2022-08-07T23:47:08.710Z,19.08
2022-08-07T23:50:37.496Z,19.08
2022-08-07T23:54:11.673Z,19.08
2022-08-07T23:57:44.710Z,19.03
